Time;durP1;ratioP1;P1;durP2;ratioP2;P2;SDS_P1;SDS_P2;PMS_P1;PMS_P2;Temp;Humidity;BMP_temperature;BMP_pressure;BME280_temperature;BME280_humidity;BME280_pressure;Samples;Min_cycle;Max_cycle;Signal;HPM_P1;HPM_P2
2022/06/05 00:01:18;;;;;;;10.85;6.40;;;18.50;95.60;;;;;;5051399;28;20025;-68
2022/06/05 00:04:06;;;;;;;9.38;5.88;;;18.50;95.60;;;;;;5044497;28;20017;-69
2022/06/05 00:07:02;;;;;;;9.27;5.90;;;18.60;95.30;;;;;;5056034;28;20044;-68
2022/06/05 00:10:05;;;;;;;8.25;5.95;;;18.50;95.40;;;;;;5055002;28;20033;-69
2022/06/05 00:12:36;;;;;;;8.45;6.10;;;18.50;95.50;;;;;;5050917;28;20465;-68
2022/06/05 00:15:02;;;;;;;8.13;6.00;;;18.40;95.70;;;;;;5051425;28;20056;-68
2022/06/05 00:17:29;;;;;;;8.60;6.28;;;18.40;95.70;;;;;;5049659;28;20021;-69
2022/06/05 00:19:55;;;;;;;8.35;6.20;;;18.30;95.80;;;;;;5055508;28;20044;-69
2022/06/05 00:22:21;;;;;;;7.57;6.25;;;18.30;95.90;;;;;;5056376;28;20410;-68
2022/06/05 00:24:49;;;;;;;7.72;6.32;;;18.20;96.00;;;;;;5049356;28;20092;-68
2022/06/05 00:27:28;;;;;;;9.30;6.55;;;18.20;96.00;;;;;;5058730;28;20033;-68
2022/06/05 00:30:00;;;;;;;12.45;7.25;;;18.20;96.00;;;;;;5044924;28;20065;-68
2022/06/05 00:32:43;;;;;;;8.43;6.38;;;18.10;96.00;;;;;;5046821;28;20044;-68
2022/06/05 00:35:16;;;;;;;8.65;6.85;;;18.10;96.10;;;;;;5052906;28;20025;-69
2022/06/05 00:37:56;;;;;;;7.43;6.15;;;18.10;96.10;;;;;;5042368;28;20115;-68
2022/06/05 00:40:44;;;;;;;8.50;6.68;;;18.10;96.10;;;;;;5042785;28;20430;-68
2022/06/05 00:43:14;;;;;;;9.38;5.97;;;18.10;96.10;;;;;;5053786;28;20272;-68
2022/06/05 00:45:41;;;;;;;9.90;7.28;;;18.10;96.10;;;;;;5046537;28;20032;-68
2022/06/05 00:48:08;;;;;;;8.82;6.13;;;18.10;96.20;;;;;;5053185;28;20487;-67
2022/06/05 00:50:35;;;;;;;9.77;6.47;;;18.20;96.10;;;;;;5055319;28;20024;-69
2022/06/05 00:53:04;;;;;;;8.90;6.28;;;18.20;96.00;;;;;;5050646;28;20418;-68
2022/06/05 00:55:44;;;;;;;7.72;6.50;;;18.10;96.10;;;;;;5050999;28;20120;-69
2022/06/05 00:58:10;;;;;;;9.93;6.95;;;18.00;96.10;;;;;;5049257;28;20013;-69
2022/06/05 01:00:40;;;;;;;10.68;6.18;;;18.00;96.20;;;;;;5046586;28;20021;-68
2022/06/05 01:03:09;;;;;;;9.43;6.25;;;18.00;96.10;;;;;;5053518;28;20029;-69
2022/06/05 01:05:36;;;;;;;9.13;6.05;;;18.00;96.30;;;;;;5047868;28;20033;-68
2022/06/05 01:08:02;;;;;;;10.23;6.90;;;18.10;96.30;;;;;;5052527;28;20029;-68
2022/06/05 01:10:36;;;;;;;8.18;6.10;;;18.10;96.40;;;;;;5048182;28;20498;-68
2022/06/05 01:13:02;;;;;;;;;;;18.10;96.20;;;;;;5047921;28;20314;-68
2022/06/05 01:15:53;;;;;;;10.90;6.70;;;18.00;96.20;;;;;;5049392;28;19924;-68
2022/06/05 01:18:45;;;;;;;10.73;6.40;;;18.00;96.30;;;;;;5042479;28;21297;-69
2022/06/05 01:21:20;;;;;;;9.95;5.90;;;17.90;96.40;;;;;;5045968;28;20025;-68
2022/06/05 01:23:48;;;;;;;8.80;6.50;;;17.80;96.30;;;;;;5047713;28;21890;-68
2022/06/05 01:26:49;;;;;;;8.77;6.65;;;17.80;96.40;;;;;;5037787;28;20032;-67
2022/06/05 01:29:28;;;;;;;10.30;7.35;;;17.80;96.40;;;;;;5050366;28;20024;-67
2022/06/05 01:32:01;;;;;;;8.93;7.40;;;17.90;96.20;;;;;;5039883;28;20028;-68
2022/06/05 01:34:38;;;;;;;14.63;9.15;;;18.00;96.40;;;;;;5047770;28;20069;-68
2022/06/05 01:37:29;;;;;;;10.40;8.18;;;18.20;96.40;;;;;;5042688;28;20058;-68
2022/06/05 01:40:11;;;;;;;10.70;7.65;;;18.30;96.40;;;;;;5047663;28;20049;-68
2022/06/05 01:42:44;;;;;;;13.02;9.30;;;18.30;96.40;;;;;;5036699;28;20515;-68
2022/06/05 01:45:35;;;;;;;12.52;10.20;;;18.30;96.40;;;;;;5049945;28;20021;-67
2022/06/05 01:48:02;;;;;;;13.70;8.88;;;18.30;96.30;;;;;;5049095;28;20556;-67
2022/06/05 01:50:40;;;;;;;12.40;9.02;;;18.30;96.40;;;;;;5044063;28;20104;-67
2022/06/05 01:53:27;;;;;;;11.13;8.60;;;18.30;96.30;;;;;;5048512;28;20058;-67
2022/06/05 01:55:57;;;;;;;10.18;8.05;;;18.40;96.40;;;;;;5051639;28;20116;-68
2022/06/05 01:58:54;;;;;;;12.65;8.10;;;18.40;96.30;;;;;;5042846;28;20424;-68
2022/06/05 02:01:26;;;;;;;11.13;8.25;;;18.50;96.40;;;;;;5048617;28;20040;-68
2022/06/05 02:04:01;;;;;;;11.73;7.63;;;18.50;96.40;;;;;;5052081;28;20029;-69
2022/06/05 02:06:33;;;;;;;12.30;8.55;;;18.40;96.30;;;;;;5052631;28;20132;-68
2022/06/05 02:09:25;;;;;;;11.50;7.50;;;18.40;96.40;;;;;;5041273;28;20037;-68
2022/06/05 02:11:50;;;;;;;11.15;7.45;;;18.40;96.40;;;;;;5046169;28;20044;-68
2022/06/05 02:14:16;;;;;;;10.88;7.53;;;18.30;96.40;;;;;;5038715;28;20358;-68
2022/06/05 02:16:43;;;;;;;9.23;7.53;;;18.20;96.40;;;;;;5047493;28;20040;-68
2022/06/05 02:19:12;;;;;;;11.52;7.75;;;18.10;96.30;;;;;;5052426;28;20063;-67
2022/06/05 02:21:40;;;;;;;12.93;8.68;;;18.10;96.40;;;;;;5051118;28;20032;-68
2022/06/05 02:24:07;;;;;;;10.25;8.73;;;18.00;96.60;;;;;;5050561;28;20029;-68
2022/06/05 02:26:33;;;;;;;12.32;7.78;;;18.00;96.60;;;;;;5049489;28;20017;-68
2022/06/05 02:29:04;;;;;;;10.75;8.10;;;18.10;96.50;;;;;;5050758;28;20075;-68
2022/06/05 02:31:51;;;;;;;10.93;8.38;;;18.10;96.50;;;;;;5043528;28;20021;-67
2022/06/05 02:34:41;;;;;;;10.70;7.32;;;18.10;96.50;;;;;;5049953;28;20437;-68
2022/06/05 02:37:22;;;;;;;8.85;7.45;;;18.10;96.50;;;;;;5048541;28;20036;-68
2022/06/05 02:39:47;;;;;;;9.02;7.55;;;18.10;96.50;;;;;;5044090;28;20037;-68
2022/06/05 02:42:28;;;;;;;10.48;8.38;;;18.10;96.60;;;;;;5050601;28;20029;-67
2022/06/05 02:44:56;;;;;;;9.85;7.88;;;18.00;96.60;;;;;;5043252;28;20067;-67
2022/06/05 02:47:39;;;;;;;11.40;7.25;;;18.00;96.60;;;;;;5050946;28;20031;-68
2022/06/05 02:50:13;;;;;;;10.20;7.50;;;18.00;96.50;;;;;;5045114;28;20609;-68
2022/06/05 02:52:41;;;;;;;9.35;7.47;;;17.90;96.60;;;;;;5051771;28;20036;-68
2022/06/05 02:55:09;;;;;;;10.75;7.72;;;17.90;96.60;;;;;;5050354;28;20059;-68
2022/06/05 02:57:36;;;;;;;11.68;9.23;;;18.00;96.50;;;;;;5051117;28;20025;-68
2022/06/05 03:00:06;;;;;;;13.30;9.25;;;17.80;96.30;;;;;;5049282;28;20421;-67
2022/06/05 03:05:19;;;;;;;15.40;11.38;;;17.30;95.80;;;;;;5048672;28;20055;-68
2022/06/05 03:07:46;;;;;;;11.05;9.60;;;17.20;95.60;;;;;;5052346;28;20076;-68
2022/06/05 03:10:12;;;;;;;12.65;8.98;;;17.00;95.50;;;;;;5046068;28;20025;-68
2022/06/05 03:12:38;;;;;;;11.23;8.50;;;16.90;95.80;;;;;;5038340;28;20037;-68
2022/06/05 03:15:06;;;;;;;11.55;9.45;;;16.90;95.50;;;;;;5045977;28;20043;-69
2022/06/05 03:17:32;;;;;;;13.15;10.20;;;17.00;95.70;;;;;;5047820;28;20020;-68
2022/06/05 03:19:58;;;;;;;10.95;9.20;;;17.00;95.60;;;;;;5042605;28;20057;-68
2022/06/05 03:22:25;;;;;;;10.23;8.88;;;16.90;95.60;;;;;;5051707;28;20118;-68
2022/06/05 03:24:52;;;;;;;13.23;9.32;;;16.90;95.40;;;;;;5043880;28;20029;-67
2022/06/05 03:27:18;;;;;;;11.65;8.65;;;16.80;95.40;;;;;;5042713;28;20373;-68
2022/06/05 03:29:45;;;;;;;10.82;8.40;;;16.80;95.70;;;;;;5043724;28;20156;-68
2022/06/05 03:32:11;;;;;;;9.52;8.13;;;16.90;96.40;;;;;;5049596;28;20063;-68
2022/06/05 03:34:37;;;;;;;11.23;8.55;;;17.00;96.20;;;;;;5050876;28;20035;-68
2022/06/05 03:37:04;;;;;;;12.27;9.32;;;17.00;95.90;;;;;;5050745;28;20322;-69
2022/06/05 03:39:34;;;;;;;11.98;9.50;;;16.90;95.70;;;;;;5047670;28;20090;-68
2022/06/05 03:42:02;;;;;;;13.52;10.55;;;16.80;95.50;;;;;;5056573;28;20036;-68
2022/06/05 03:44:28;;;;;;;15.43;10.23;;;16.80;95.40;;;;;;5047260;28;20132;-68
2022/06/05 03:46:55;;;;;;;12.10;9.90;;;16.80;95.30;;;;;;5048188;28;20108;-68
2022/06/05 03:49:21;;;;;;;11.85;10.43;;;16.70;95.10;;;;;;5042668;28;20029;-68
2022/06/05 03:51:46;;;;;;;11.25;9.60;;;16.70;95.00;;;;;;5058420;28;20059;-68
2022/06/05 03:54:12;;;;;;;13.25;10.18;;;16.70;95.00;;;;;;5044386;28;20025;-68
2022/06/05 03:56:39;;;;;;;12.55;9.90;;;16.70;95.00;;;;;;5051939;28;20409;-68
2022/06/05 03:59:06;;;;;;;13.38;10.48;;;16.70;94.80;;;;;;5043280;28;20055;-67
2022/06/05 04:01:31;;;;;;;14.88;11.10;;;16.70;94.90;;;;;;5056745;28;20097;-67
2022/06/05 04:03:57;;;;;;;11.93;9.45;;;16.70;95.00;;;;;;5047732;28;20029;-68
2022/06/05 04:06:28;;;;;;;13.18;10.52;;;16.70;94.90;;;;;;5054753;28;20037;-68
2022/06/05 04:08:55;;;;;;;12.02;9.95;;;16.70;94.80;;;;;;5046602;28;20036;-68
2022/06/05 04:11:22;;;;;;;14.77;11.70;;;16.70;95.10;;;;;;5055844;28;20020;-68
2022/06/05 04:13:48;;;;;;;14.77;10.75;;;16.70;94.80;;;;;;5048402;28;20063;-68
2022/06/05 04:16:23;;;;;;;15.10;11.30;;;16.60;94.50;;;;;;5045608;28;20418;-68
2022/06/05 04:18:50;;;;;;;17.88;11.30;;;16.60;94.50;;;;;;5048665;28;20082;-68
2022/06/05 04:21:22;;;;;;;14.82;10.15;;;16.60;94.40;;;;;;5053584;28;20028;-67
2022/06/05 04:23:49;;;;;;;14.57;10.63;;;16.60;94.50;;;;;;5049345;28;20075;-66
2022/06/05 04:26:18;;;;;;;16.02;11.07;;;16.70;94.40;;;;;;5053458;28;20047;-66
2022/06/05 04:28:44;;;;;;;14.02;10.77;;;16.70;94.80;;;;;;5055219;28;20028;-67
2022/06/05 04:31:37;;;;;;;19.45;13.18;;;16.70;94.90;;;;;;4965424;28;20666;-67
2022/06/05 04:34:09;;;;;;;18.08;14.00;;;16.70;94.80;;;;;;5052113;28;20037;-66
2022/06/05 04:36:36;;;;;;;18.73;15.18;;;16.70;94.40;;;;;;5048677;28;20053;-68
2022/06/05 04:39:03;;;;;;;16.95;13.43;;;16.70;94.10;;;;;;5051407;28;20083;-67
2022/06/05 04:41:30;;;;;;;19.15;14.50;;;16.60;93.90;;;;;;5046659;28;20045;-68
2022/06/05 04:43:58;;;;;;;18.23;14.93;;;16.60;93.80;;;;;;5046441;28;20464;-67
2022/06/05 04:46:27;;;;;;;16.17;13.27;;;16.60;93.40;;;;;;5055613;28;20048;-66
2022/06/05 04:48:53;;;;;;;16.05;14.35;;;16.50;93.30;;;;;;5048204;28;20496;-68
2022/06/05 04:51:20;;;;;;;17.77;15.65;;;16.50;93.00;;;;;;5047632;28;20036;-69
2022/06/05 04:53:47;;;;;;;24.10;16.90;;;16.40;92.70;;;;;;5049715;28;20413;-69
2022/06/05 04:56:16;;;;;;;17.23;15.27;;;16.40;92.60;;;;;;5053756;28;20083;-69
2022/06/05 04:58:41;;;;;;;20.42;16.33;;;16.40;92.30;;;;;;5051333;28;20021;-66
2022/06/05 05:01:21;;;;;;;18.02;15.45;;;16.40;92.00;;;;;;5051500;28;20449;-67
2022/06/05 05:03:50;;;;;;;18.42;14.80;;;16.30;91.90;;;;;;5046372;28;20021;-68
2022/06/05 05:06:16;;;;;;;19.23;15.55;;;16.40;91.90;;;;;;5045495;28;20030;-67
2022/06/05 05:08:42;;;;;;;21.10;16.58;;;16.40;91.80;;;;;;5047175;28;20309;-68
2022/06/05 05:11:08;;;;;;;20.27;16.70;;;16.30;91.30;;;;;;5039121;28;20021;-69
2022/06/05 05:13:34;;;;;;;21.80;17.45;;;16.30;90.50;;;;;;5046641;28;20041;-68
2022/06/05 05:16:08;;;;;;;23.05;17.60;;;16.30;89.50;;;;;;5054269;28;20029;-69
2022/06/05 05:18:35;;;;;;;18.80;15.63;;;16.20;89.70;;;;;;5054273;28;20055;-69
2022/06/05 05:21:13;;;;;;;27.88;17.23;;;16.00;88.80;;;;;;5049906;28;20027;-70
2022/06/05 05:23:39;;;;;;;28.15;20.42;;;16.00;87.10;;;;;;5048816;28;20026;-72
2022/06/05 05:26:10;;;;;;;26.15;19.63;;;16.00;85.70;;;;;;5050115;28;20437;-71
2022/06/05 05:28:38;;;;;;;29.63;18.27;;;16.00;84.30;;;;;;5050626;28;20432;-73
2022/06/05 05:31:08;;;;;;;32.22;16.55;;;15.90;83.50;;;;;;5047996;28;20033;-74
2022/06/05 05:33:34;;;;;;;21.08;10.85;;;15.80;83.00;;;;;;5047316;28;20031;-74
2022/06/05 05:36:00;;;;;;;31.33;11.93;;;15.70;82.30;;;;;;5053100;28;20111;-74
2022/06/05 05:38:25;;;;;;;31.70;12.50;;;15.70;81.60;;;;;;5043386;28;20362;-74
2022/06/05 05:43:35;;;;;;;10.68;8.38;;;15.70;80.10;;;;;;5050854;28;20074;-73
2022/06/05 05:46:01;;;;;;;15.35;7.13;;;15.70;80.00;;;;;;5052294;28;20372;-74
2022/06/05 05:48:28;;;;;;;13.68;6.10;;;15.60;79.90;;;;;;5048443;28;20029;-72
2022/06/05 05:50:54;;;;;;;7.80;5.13;;;15.60;79.80;;;;;;5048651;28;20039;-74
2022/06/05 05:53:19;;;;;;;8.77;4.50;;;15.60;79.70;;;;;;5053202;28;20033;-72
2022/06/05 05:55:45;;;;;;;9.48;2.35;;;15.60;79.60;;;;;;5053911;28;20032;-72
2022/06/05 05:58:10;;;;;;;4.78;2.10;;;15.60;79.80;;;;;;5050486;28;20048;-71
2022/06/05 06:00:36;;;;;;;14.30;2.45;;;15.50;80.20;;;;;;5051431;28;20028;-70
2022/06/05 06:03:02;;;;;;;4.35;2.35;;;15.50;80.00;;;;;;5047479;28;20072;-70
2022/06/05 06:05:27;;;;;;;3.22;1.77;;;15.50;80.40;;;;;;5046958;28;20064;-69
2022/06/05 06:07:53;;;;;;;4.35;1.80;;;15.50;81.30;;;;;;5051378;28;20037;-70
2022/06/05 06:10:19;;;;;;;3.03;1.23;;;15.50;81.50;;;;;;5051560;28;20433;-71
2022/06/05 06:12:44;;;;;;;2.58;1.10;;;15.40;85.10;;;;;;5044710;28;20029;-72
2022/06/05 06:15:10;;;;;;;3.55;1.27;;;15.20;88.10;;;;;;5049682;28;20033;-72
2022/06/05 06:17:36;;;;;;;3.22;1.33;;;15.20;89.50;;;;;;5046646;28;20033;-72
2022/06/05 06:20:04;;;;;;;3.30;1.38;;;15.30;91.20;;;;;;5040776;28;20108;-72
2022/06/05 06:22:29;;;;;;;4.85;1.63;;;15.20;91.10;;;;;;5050694;28;20029;-73
2022/06/05 06:24:55;;;;;;;2.83;1.38;;;15.20;89.50;;;;;;5051054;28;20035;-73
2022/06/05 06:27:20;;;;;;;4.65;1.15;;;15.20;88.90;;;;;;5052139;28;20060;-73
2022/06/05 06:29:46;;;;;;;3.60;1.27;;;15.10;91.20;;;;;;5049553;28;20441;-73
2022/06/05 06:32:12;;;;;;;4.47;1.83;;;15.10;91.30;;;;;;5052810;28;20037;-73
2022/06/05 06:34:37;;;;;;;3.42;1.30;;;15.00;90.00;;;;;;5051408;28;20028;-73
2022/06/05 06:37:03;;;;;;;5.50;1.27;;;15.00;91.00;;;;;;5044904;28;20029;-73
2022/06/05 06:39:32;;;;;;;7.85;1.92;;;15.10;92.80;;;;;;5047275;28;20036;-73
2022/06/05 06:41:57;;;;;;;5.80;1.30;;;15.20;92.90;;;;;;5053338;28;20369;-73
2022/06/05 06:44:23;;;;;;;2.90;1.30;;;15.10;91.00;;;;;;5049319;28;20071;-73
2022/06/05 06:46:48;;;;;;;3.78;1.55;;;15.00;90.60;;;;;;5049598;28;20037;-73
2022/06/05 06:49:15;;;;;;;5.45;1.50;;;15.00;92.20;;;;;;5050866;28;20083;-72
2022/06/05 06:51:41;;;;;;;4.13;1.73;;;15.20;92.10;;;;;;5054724;28;20650;-73
2022/06/05 06:54:07;;;;;;;8.68;1.70;;;15.30;92.00;;;;;;5051062;28;20030;-73
2022/06/05 06:56:35;;;;;;;5.03;1.73;;;15.40;90.40;;;;;;5050599;28;20061;-72
2022/06/05 06:59:02;;;;;;;6.28;1.85;;;15.40;89.00;;;;;;5051316;28;20125;-73
2022/06/05 07:01:27;;;;;;;4.57;1.70;;;15.30;88.50;;;;;;5054484;28;20055;-73
2022/06/05 07:03:53;;;;;;;5.85;1.70;;;15.30;87.60;;;;;;5052428;28;20049;-70
2022/06/05 07:06:22;;;;;;;5.10;1.98;;;15.30;87.00;;;;;;5049691;28;20025;-71
2022/06/05 07:08:49;;;;;;;5.95;1.60;;;15.30;86.00;;;;;;5047188;28;20047;-71
2022/06/05 07:11:16;;;;;;;4.70;1.80;;;15.40;85.10;;;;;;5052577;28;20336;-72
2022/06/05 07:13:42;;;;;;;4.72;2.05;;;15.50;85.20;;;;;;5051236;28;20021;-72
2022/06/05 07:16:10;;;;;;;4.68;1.95;;;15.60;84.30;;;;;;5058223;28;20320;-72
2022/06/05 07:18:36;;;;;;;3.20;1.85;;;15.60;84.40;;;;;;5045744;28;20104;-72
2022/06/05 07:21:11;;;;;;;4.80;1.80;;;15.70;84.20;;;;;;5053060;28;20029;-72
2022/06/05 07:23:36;;;;;;;3.13;1.60;;;15.80;84.00;;;;;;5054816;28;20021;-72
2022/06/05 07:26:02;;;;;;;5.55;1.88;;;15.90;85.30;;;;;;5054620;28;20364;-72
2022/06/05 07:28:28;;;;;;;3.60;1.90;;;16.00;84.90;;;;;;5054515;28;20037;-72
2022/06/05 07:30:53;;;;;;;4.90;1.65;;;16.20;86.40;;;;;;5047831;28;20083;-72
2022/06/05 07:33:19;;;;;;;5.10;1.50;;;16.30;88.50;;;;;;5053751;28;20033;-72
2022/06/05 07:35:45;;;;;;;3.97;1.30;;;16.50;89.60;;;;;;5056555;28;20051;-72
2022/06/05 07:38:11;;;;;;;6.60;1.95;;;16.70;90.70;;;;;;5056960;28;20025;-71
2022/06/05 07:40:44;;;;;;;3.70;1.52;;;16.90;93.60;;;;;;5053242;28;20040;-72
2022/06/05 07:43:10;;;;;;;5.28;1.55;;;17.10;93.30;;;;;;5054647;28;20028;-71
2022/06/05 07:45:37;;;;;;;8.05;1.92;;;17.50;93.80;;;;;;5051133;28;20041;-71
2022/06/05 07:48:04;;;;;;;5.30;1.75;;;17.60;95.80;;;;;;5055658;28;20025;-71
2022/06/05 07:50:30;;;;;;;4.63;1.45;;;17.80;95.60;;;;;;5050062;28;20036;-71
2022/06/05 07:55:40;;;;;;;5.00;1.80;;;18.70;97.00;;;;;;5056620;28;20036;-71
2022/06/05 07:58:06;;;;;;;3.15;1.20;;;19.30;97.70;;;;;;5054452;28;20029;-71
2022/06/05 08:00:31;;;;;;;4.38;1.40;;;19.70;97.70;;;;;;5052087;28;20024;-70
2022/06/05 08:02:57;;;;;;;5.10;1.50;;;20.40;96.90;;;;;;5052206;28;20071;-70
2022/06/05 08:05:23;;;;;;;3.38;1.50;;;21.00;95.70;;;;;;5052602;28;20100;-70
2022/06/05 08:07:48;;;;;;;4.63;1.40;;;21.00;95.30;;;;;;5055645;28;20082;-71
2022/06/05 08:10:17;;;;;;;4.07;1.33;;;21.40;94.70;;;;;;5051706;28;20036;-70
2022/06/05 08:12:44;;;;;;;3.05;0.90;;;21.80;93.00;;;;;;5049929;28;20282;-70
2022/06/05 08:15:13;;;;;;;3.25;1.15;;;22.10;91.80;;;;;;5049159;28;20025;-70
2022/06/05 08:17:39;;;;;;;3.10;1.00;;;22.50;91.20;;;;;;5051681;28;20017;-70
2022/06/05 08:20:07;;;;;;;3.67;1.10;;;22.50;91.40;;;;;;5053409;28;20055;-68
2022/06/05 08:22:34;;;;;;;4.43;1.13;;;22.50;91.60;;;;;;5049478;28;20052;-70
2022/06/05 08:25:00;;;;;;;5.97;1.55;;;22.70;90.10;;;;;;5055520;28;20383;-69
2022/06/05 08:27:27;;;;;;;3.85;1.30;;;22.80;91.10;;;;;;5055984;28;20024;-70
2022/06/05 08:29:57;;;;;;;4.57;1.35;;;22.80;89.10;;;;;;5054000;28;20033;-70
2022/06/05 08:32:25;;;;;;;4.28;1.23;;;22.90;91.20;;;;;;5050016;28;20041;-70
2022/06/05 08:34:54;;;;;;;6.03;1.80;;;23.70;87.50;;;;;;5051228;28;20036;-70
2022/06/05 08:42:56;;;;;;;7.00;1.55;;;24.40;84.50;;;;;;5037202;28;19962;-68
2022/06/05 08:45:31;;;;;;;5.13;1.20;;;24.40;83.20;;;;;;5053126;28;20418;-70
2022/06/05 08:48:06;;;;;;;4.32;1.50;;;24.30;84.10;;;;;;5053470;28;20021;-70
2022/06/05 08:50:47;;;;;;;4.63;1.45;;;24.30;84.90;;;;;;5053444;28;20106;-68
2022/06/05 08:53:21;;;;;;;5.10;1.73;;;24.50;85.50;;;;;;5055668;28;20040;-70
2022/06/05 08:55:48;;;;;;;6.68;1.95;;;24.70;83.80;;;;;;5046132;28;20033;-70
2022/06/05 08:58:31;;;;;;;6.95;1.85;;;24.70;83.40;;;;;;5053160;28;20440;-68
2022/06/05 09:01:00;;;;;;;5.63;1.80;;;24.80;84.50;;;;;;5048465;28;20029;-71
2022/06/05 09:03:32;;;;;;;5.82;2.40;;;25.30;82.10;;;;;;5055736;28;20043;-70
2022/06/05 09:06:18;;;;;;;5.38;2.10;;;25.40;81.40;;;;;;5051232;28;20048;-70
2022/06/05 09:08:48;;;;;;;8.60;2.53;;;25.10;82.60;;;;;;5052114;28;20433;-70
2022/06/05 09:11:22;;;;;;;7.07;2.90;;;25.10;85.10;;;;;;5050180;28;20418;-70
2022/06/05 09:13:47;;;;;;;6.75;2.85;;;24.70;83.40;;;;;;5054419;28;20029;-70
2022/06/05 09:16:25;;;;;;;7.15;2.80;;;24.20;85.70;;;;;;5049854;28;20027;-69
2022/06/05 09:18:51;;;;;;;8.57;2.97;;;23.20;87.50;;;;;;5043533;28;20021;-70
2022/06/05 09:21:30;;;;;;;10.43;3.40;;;22.50;90.40;;;;;;5045488;28;20033;-70
2022/06/05 09:24:07;;;;;;;8.35;3.67;;;21.70;91.70;;;;;;5045950;28;20056;-70
2022/06/05 09:26:44;;;;;;;9.07;4.15;;;21.30;93.10;;;;;;5048301;28;20038;-69
2022/06/05 09:29:36;;;;;;;8.18;4.18;;;21.00;93.70;;;;;;5050044;28;20028;-69
2022/06/05 09:32:29;;;;;;;10.70;3.90;;;20.80;94.20;;;;;;5048763;28;20041;-70
2022/06/05 09:35:02;;;;;;;10.80;3.90;;;20.80;94.70;;;;;;5052410;28;20048;-70
2022/06/05 09:37:49;;;;;;;8.10;3.70;;;20.90;94.00;;;;;;5039285;28;20488;-68
2022/06/05 09:40:30;;;;;;;11.65;3.47;;;20.80;94.20;;;;;;5053103;28;20393;-70
2022/06/05 09:43:18;;;;;;;7.63;4.13;;;20.70;94.40;;;;;;5046470;28;20429;-70
2022/06/05 09:46:08;;;;;;;8.32;4.60;;;20.40;95.20;;;;;;5052189;28;20036;-69
2022/06/05 09:48:48;;;;;;;7.78;4.22;;;20.20;95.80;;;;;;5048134;28;20111;-69
2022/06/05 09:51:17;;;;;;;9.52;4.43;;;19.90;95.40;;;;;;5049721;28;20025;-69
2022/06/05 09:53:54;;;;;;;10.52;4.65;;;19.60;96.10;;;;;;5050048;28;20091;-70
2022/06/05 09:59:38;;;;;;;9.60;5.15;;;19.10;95.70;;;;;;5047045;28;20166;-71
2022/06/05 10:02:06;;;;;;;7.65;5.13;;;18.80;94.20;;;;;;5050113;28;20090;-71
2022/06/05 10:04:33;;;;;;;10.07;4.93;;;18.50;94.10;;;;;;5048940;28;20433;-70
2022/06/05 10:07:08;;;;;;;8.95;5.38;;;18.40;93.60;;;;;;5044768;28;20025;-71
2022/06/05 10:09:40;;;;;;;9.18;5.30;;;18.20;93.60;;;;;;5050769;28;20036;-71
2022/06/05 10:12:19;;;;;;;10.02;6.10;;;18.10;93.50;;;;;;5051872;28;20047;-71
2022/06/05 10:14:47;;;;;;;10.52;5.68;;;18.10;92.70;;;;;;5048024;28;20040;-71
2022/06/05 10:17:31;;;;;;;7.97;4.50;;;18.00;92.80;;;;;;5051704;28;20033;-71
2022/06/05 10:20:15;;;;;;;9.33;4.30;;;17.90;94.20;;;;;;5047913;28;20396;-71
2022/06/05 10:22:47;;;;;;;7.72;3.63;;;17.80;93.90;;;;;;5050907;28;20053;-71
2022/06/05 10:25:36;;;;;;;6.32;3.55;;;17.60;95.50;;;;;;5043126;28;20021;-71
2022/06/05 10:28:10;;;;;;;8.93;3.80;;;17.40;95.70;;;;;;5048758;28;20119;-70
2022/06/05 10:30:52;;;;;;;8.63;3.60;;;17.20;93.70;;;;;;5048996;28;20029;-70
2022/06/05 10:33:52;;;;;;;10.77;5.90;;;17.10;93.60;;;;;;5048397;28;20033;-70
2022/06/05 10:36:22;;;;;;;9.27;4.53;;;17.20;91.70;;;;;;5047713;28;20432;-69
2022/06/05 10:39:06;;;;;;;8.32;3.65;;;17.10;91.60;;;;;;5048915;28;20325;-69
2022/06/05 10:42:06;;;;;;;8.82;4.10;;;17.10;92.40;;;;;;5047160;28;20357;-72
2022/06/05 10:45:16;;;;;;;8.65;4.95;;;17.10;91.30;;;;;;5040483;28;20052;-71
2022/06/05 10:47:49;;;;;;;8.90;4.72;;;17.00;90.40;;;;;;5044974;28;20033;-69
2022/06/05 10:50:22;;;;;;;11.45;4.82;;;17.00;90.00;;;;;;5046429;28;20029;-72
2022/06/05 10:53:28;;;;;;;9.63;4.28;;;17.00;90.40;;;;;;5065674;28;20025;-70
2022/06/05 10:56:18;;;;;;;8.65;4.20;;;16.90;90.40;;;;;;5050320;28;20055;-71
2022/06/05 10:58:48;;;;;;;7.38;4.15;;;16.80;90.60;;;;;;5045625;28;20082;-72
2022/06/05 11:01:30;;;;;;;9.88;3.40;;;16.70;90.90;;;;;;5049070;28;20021;-72
2022/06/05 11:04:16;;;;;;;9.55;4.22;;;16.70;91.10;;;;;;5046980;28;20132;-71
2022/06/05 11:07:18;;;;;;;13.13;4.45;;;16.70;90.10;;;;;;5050464;28;20254;-72
2022/06/05 11:09:57;;;;;;;10.15;3.85;;;16.80;90.40;;;;;;5052609;28;20098;-71
2022/06/05 11:15:39;;;;;;;9.65;3.67;;;17.40;90.80;;;;;;5052881;28;20075;-69
2022/06/05 11:18:05;;;;;;;9.48;3.58;;;17.90;92.70;;;;;;5046038;28;20060;-71
2022/06/05 11:20:32;;;;;;;9.90;2.75;;;18.30;92.70;;;;;;5051476;28;20056;-70
2022/06/05 11:23:02;;;;;;;6.57;2.60;;;18.70;94.40;;;;;;5054535;28;20429;-71
2022/06/05 11:25:55;;;;;;;7.75;2.65;;;19.10;95.10;;;;;;5044105;28;20477;-70
2022/06/05 11:28:51;;;;;;;9.10;2.85;;;19.30;97.30;;;;;;5045331;28;20067;-70
2022/06/05 11:31:33;;;;;;;6.90;2.95;;;19.20;96.40;;;;;;5050435;28;20033;-70
2022/06/05 11:34:20;;;;;;;6.25;3.03;;;19.20;97.40;;;;;;5048476;28;20032;-69
2022/06/05 11:36:54;;;;;;;6.20;2.75;;;19.40;96.20;;;;;;5050760;28;20025;-70
2022/06/05 11:39:32;;;;;;;7.07;2.70;;;19.50;96.60;;;;;;5052605;28;20078;-70
2022/06/05 11:42:19;;;;;;;8.68;2.50;;;19.70;97.20;;;;;;5052001;28;20026;-68
2022/06/05 11:44:54;;;;;;;8.25;2.78;;;19.60;96.90;;;;;;5049482;28;20033;-69
2022/06/05 11:47:51;;;;;;;6.20;2.72;;;19.30;97.00;;;;;;5050888;28;20025;-70
2022/06/05 11:50:38;;;;;;;4.38;2.30;;;19.30;97.20;;;;;;5052162;28;20037;-70
2022/06/05 11:53:28;;;;;;;5.95;2.65;;;19.30;96.80;;;;;;5052317;28;20067;-69
2022/06/05 11:56:21;;;;;;;7.65;2.30;;;19.50;96.70;;;;;;5050533;28;20074;-70
2022/06/05 11:59:12;;;;;;;7.63;2.22;;;19.50;96.60;;;;;;5049467;28;20031;-70
2022/06/05 12:01:44;;;;;;;5.60;2.00;;;19.30;97.00;;;;;;5052511;28;20025;-71
2022/06/05 12:04:18;;;;;;;5.80;2.00;;;19.20;96.70;;;;;;5055937;28;20027;-70
2022/06/05 12:06:52;;;;;;;8.05;2.20;;;18.70;96.20;;;;;;5058067;28;20043;-69
2022/06/05 12:09:25;;;;;;;9.00;2.38;;;18.60;96.70;;;;;;5050964;28;20329;-69
2022/06/05 12:12:08;;;;;;;8.38;2.08;;;18.60;96.40;;;;;;5046704;28;20028;-69
2022/06/05 12:14:42;;;;;;;9.13;2.20;;;18.60;96.40;;;;;;5049676;28;20132;-68
2022/06/05 12:17:38;;;;;;;7.57;2.53;;;18.70;96.80;;;;;;5054620;28;20031;-68
2022/06/05 12:20:23;;;;;;;7.10;2.67;;;18.80;96.60;;;;;;5050560;28;20051;-70
2022/06/05 12:23:26;;;;;;;7.22;2.67;;;19.00;98.00;;;;;;5054107;28;20013;-68
2022/06/05 12:26:22;;;;;;;5.43;2.67;;;19.20;96.80;;;;;;5052455;28;20099;-69
2022/06/05 12:29:00;;;;;;;8.63;3.25;;;19.50;96.30;;;;;;5045582;28;20088;-70
2022/06/05 12:31:35;;;;;;;10.75;3.42;;;19.70;96.90;;;;;;5052809;28;20433;-70
2022/06/05 12:34:12;;;;;;;6.30;2.70;;;20.00;96.40;;;;;;5054781;28;20417;-70
2022/06/05 12:36:52;;;;;;;7.47;2.95;;;20.20;96.60;;;;;;5056765;28;20037;-70
2022/06/05 12:39:26;;;;;;;9.30;2.83;;;20.40;96.50;;;;;;5054964;28;20029;-70
2022/06/05 12:42:04;;;;;;;11.68;3.38;;;20.50;96.00;;;;;;5054681;28;20060;-70
2022/06/05 12:44:42;;;;;;;7.03;2.92;;;20.40;96.10;;;;;;5055295;28;20049;-70
2022/06/05 12:47:34;;;;;;;7.13;2.75;;;20.60;96.00;;;;;;5059478;28;20449;-70
2022/06/05 12:50:31;;;;;;;6.22;2.92;;;20.80;95.60;;;;;;5056777;28;20024;-70
2022/06/05 12:53:04;;;;;;;6.35;2.85;;;21.00;96.00;;;;;;5052368;28;20360;-70
2022/06/05 12:56:07;;;;;;;9.38;3.25;;;21.00;95.60;;;;;;5054815;28;20029;-70
2022/06/05 12:58:51;;;;;;;7.32;3.33;;;20.70;96.10;;;;;;5052397;28;20375;-68
2022/06/05 13:01:38;;;;;;;7.28;2.95;;;20.60;96.00;;;;;;5049661;28;20028;-68
2022/06/05 13:04:34;;;;;;;6.40;3.20;;;20.60;96.30;;;;;;5056988;28;20029;-68
2022/06/05 13:07:20;;;;;;;6.18;3.05;;;20.80;96.70;;;;;;5046148;28;20026;-69
2022/06/05 13:09:55;;;;;;;6.05;3.00;;;20.70;95.20;;;;;;5054004;28;20025;-70
2022/06/05 13:12:36;;;;;;;7.35;3.10;;;20.80;95.60;;;;;;5055740;28;20082;-70
2022/06/05 13:15:23;;;;;;;7.82;3.58;;;20.60;95.60;;;;;;5055766;28;20087;-69
2022/06/05 13:17:49;;;;;;;8.60;2.92;;;20.60;96.00;;;;;;5051673;28;20083;-70
2022/06/05 13:20:34;;;;;;;9.25;2.95;;;20.90;95.90;;;;;;5053352;28;20021;-69
2022/06/05 13:23:21;;;;;;;6.43;2.63;;;21.30;94.60;;;;;;5051964;28;20086;-69
2022/06/05 13:26:12;;;;;;;4.95;2.40;;;21.60;94.30;;;;;;5051296;28;20033;-69
2022/06/05 13:28:40;;;;;;;5.88;2.63;;;21.60;93.10;;;;;;5055124;28;20374;-69
2022/06/05 13:31:26;;;;;;;9.05;2.42;;;21.60;94.50;;;;;;5050382;28;20150;-69
2022/06/05 13:34:03;;;;;;;6.18;2.72;;;21.80;94.40;;;;;;5052052;28;20033;-71
2022/06/05 13:36:38;;;;;;;7.97;4.70;;;21.80;93.60;;;;;;5052447;28;20056;-71